Time;durP1;ratioP1;P1;durP2;ratioP2;P2;SDS_P1;SDS_P2;PMS_P1;PMS_P2;Temp;Humidity;BMP_temperature;BMP_pressure;BME280_temperature;BME280_humidity;BME280_pressure;Samples;Min_cycle;Max_cycle;Signal;HPM_P1;HPM_P2
2021/03/12 00:01:51;;;;;;;1.23;1.23;;;;;;;8.04;88.17;99260.38;5072716;28;20938;-69
2021/03/12 00:04:17;;;;;;;0.40;0.30;;;;;;;8.08;87.84;99264.81;5072763;28;20437;-68
2021/03/12 00:06:43;;;;;;;0.40;0.30;;;;;;;8.08;87.81;99267.53;5072750;28;20460;-68
2021/03/12 00:09:09;;;;;;;0.60;0.57;;;;;;;8.14;87.40;99268.16;5072635;28;20492;-69
2021/03/12 00:11:36;;;;;;;0.40;0.30;;;;;;;8.15;87.77;99285.94;5072631;28;20487;-68
2021/03/12 00:14:02;;;;;;;0.40;0.30;;;;;;;8.11;88.40;99287.69;5072262;28;20518;-69
2021/03/12 00:16:27;;;;;;;1.67;1.57;;;;;;;8.13;88.09;99296.25;5072586;28;20500;-68
2021/03/12 00:18:53;;;;;;;0.50;0.40;;;;;;;8.11;88.40;99290.38;5072607;28;20441;-67
2021/03/12 00:21:19;;;;;;;0.40;0.30;;;;;;;8.10;87.85;99294.16;5072459;28;20542;-68
2021/03/12 00:23:45;;;;;;;0.50;0.40;;;;;;;8.09;88.43;99292.59;5072548;28;20784;-68
2021/03/12 00:26:11;;;;;;;0.50;0.30;;;;;;;7.99;88.28;99306.38;5075411;28;20441;-68
2021/03/12 00:28:38;;;;;;;0.40;0.40;;;;;;;7.97;88.16;99306.72;5076346;28;20452;-67
2021/03/12 00:31:06;;;;;;;0.40;0.40;;;;;;;8.01;87.86;99315.75;5076171;28;20492;-68
2021/03/12 00:33:32;;;;;;;0.60;0.50;;;;;;;8.06;87.76;99317.50;5076436;28;20815;-68
2021/03/12 00:35:58;;;;;;;0.40;0.40;;;;;;;8.04;88.74;99317.00;5076182;28;20449;-67
2021/03/12 00:38:24;;;;;;;0.40;0.40;;;;;;;8.01;88.47;99314.94;5075705;28;20942;-69
2021/03/12 00:40:51;;;;;;;0.50;0.40;;;;;;;8.06;87.98;99317.50;5075716;28;20518;-69
2021/03/12 00:43:19;;;;;;;0.97;0.40;;;;;;;8.06;88.50;99328.28;5076156;28;20510;-67
2021/03/12 00:45:48;;;;;;;0.50;0.40;;;;;;;8.03;88.61;99334.31;5076016;28;20489;-68
2021/03/12 00:48:15;;;;;;;0.40;0.30;;;;;;;8.04;88.21;99333.19;5076003;28;20445;-69
2021/03/12 00:50:42;;;;;;;0.50;0.43;;;;;;;8.06;87.75;99344.47;5075497;28;20484;-68
2021/03/12 00:53:09;;;;;;;1.03;0.40;;;;;;;8.07;87.50;99335.25;5075811;28;20433;-68
2021/03/12 00:55:36;;;;;;;0.40;0.30;;;;;;;8.07;87.61;99335.25;5075829;28;20429;-68
2021/03/12 00:58:02;;;;;;;0.40;0.30;;;;;;;8.05;88.07;99343.66;5075424;28;20938;-69
2021/03/12 01:00:30;;;;;;;0.47;0.37;;;;;;;7.91;88.27;99343.00;5075675;28;20513;-68
2021/03/12 01:02:58;;;;;;;0.97;0.70;;;;;;;7.85;88.39;99333.47;5075678;28;20456;-67
2021/03/12 01:05:24;;;;;;;0.50;0.40;;;;;;;7.86;89.04;99332.34;5075704;28;20853;-68
2021/03/12 01:07:50;;;;;;;0.40;0.30;;;;;;;7.84;88.77;99332.69;5075707;28;20454;-69
2021/03/12 01:10:17;;;;;;;1.33;0.47;;;;;;;7.87;88.59;99335.84;5075547;28;20536;-68
2021/03/12 01:12:43;;;;;;;0.40;0.30;;;;;;;7.88;88.49;99332.84;5075479;28;20481;-68
2021/03/12 01:15:13;;;;;;;0.63;0.60;;;;;;;7.81;88.93;99322.53;5075479;28;20441;-68
2021/03/12 01:17:39;;;;;;;0.50;0.40;;;;;;;7.74;88.46;99332.94;5075454;28;20444;-68
2021/03/12 01:20:09;;;;;;;0.70;0.60;;;;;;;7.58;88.66;99321.03;5075323;28;20464;-68
2021/03/12 01:22:35;;;;;;;0.40;0.30;;;;;;;7.55;88.70;99316.25;5075386;28;20512;-68
2021/03/12 01:25:01;;;;;;;1.57;0.80;;;;;;;7.53;89.17;99323.88;5075293;28;20445;-68
2021/03/12 01:27:28;;;;;;;1.40;0.40;;;;;;;7.50;89.51;99316.41;5075345;28;20442;-68
2021/03/12 01:30:07;;;;;;;0.40;0.27;;;;;;;7.47;89.80;99336.66;5075174;28;20464;-68
2021/03/12 01:32:33;;;;;;;1.13;0.77;;;;;;;7.50;88.80;99329.88;5075131;28;20485;-67
2021/03/12 01:34:59;;;;;;;0.60;0.40;;;;;;;7.47;88.91;99333.19;5075126;28;21004;-68
2021/03/12 01:37:26;;;;;;;0.40;0.30;;;;;;;7.50;89.10;99346.03;5074729;28;20445;-67
2021/03/12 01:39:52;;;;;;;0.97;0.40;;;;;;;7.47;88.34;99343.97;5074475;28;21028;-68
2021/03/12 01:42:18;;;;;;;0.57;0.40;;;;;;;7.46;88.32;99327.00;5074975;28;20438;-68
2021/03/12 01:44:44;;;;;;;0.40;0.20;;;;;;;7.44;88.20;99336.53;5074903;28;20494;-67
2021/03/12 01:47:10;;;;;;;0.40;0.30;;;;;;;7.44;88.28;99352.69;5074874;28;20437;-67
2021/03/12 01:49:36;;;;;;;0.40;0.40;;;;;;;7.48;88.31;99356.31;5074805;28;20454;-68
2021/03/12 01:52:03;;;;;;;0.60;0.50;;;;;;;7.53;88.02;99356.22;5074704;28;20994;-68
2021/03/12 01:54:33;;;;;;;0.40;0.20;;;;;;;7.60;88.09;99370.00;5074539;28;20429;-67
2021/03/12 01:56:59;;;;;;;0.40;0.30;;;;;;;7.58;87.82;99356.06;5074661;28;20502;-67
2021/03/12 01:59:25;;;;;;;0.40;0.30;;;;;;;7.59;88.18;99374.59;5074236;28;20477;-68
2021/03/12 02:01:51;;;;;;;0.50;0.50;;;;;;;7.61;88.49;99365.41;5074600;28;20495;-68
2021/03/12 02:04:17;;;;;;;0.77;0.77;;;;;;;7.53;89.12;99369.69;5074536;28;20857;-68
2021/03/12 02:06:43;;;;;;;4.63;0.93;;;;;;;7.29;89.76;99365.44;5074484;28;20840;-67
2021/03/12 02:09:09;;;;;;;0.50;0.30;;;;;;;7.23;90.79;99355.91;5074365;28;20510;-68
2021/03/12 02:11:37;;;;;;;0.50;0.40;;;;;;;7.22;91.77;99369.69;5074302;28;20542;-67
2021/03/12 02:14:13;;;;;;;0.40;0.30;;;;;;;7.19;92.13;99368.38;5074319;28;20449;-68
2021/03/12 02:16:48;;;;;;;0.40;0.30;;;;;;;7.07;92.77;99363.56;5074109;28;20787;-67
2021/03/12 02:19:27;;;;;;;0.50;0.30;;;;;;;7.04;92.21;99374.97;5074214;28;20417;-68
2021/03/12 02:21:55;;;;;;;0.40;0.30;;;;;;;6.92;92.82;99369.34;5074207;28;20422;-69
2021/03/12 02:24:27;;;;;;;0.40;0.30;;;;;;;6.91;92.57;99369.66;5074108;28;20499;-67
2021/03/12 02:26:58;;;;;;;0.40;0.40;;;;;;;6.85;93.20;99373.53;5074126;28;20430;-69
2021/03/12 02:29:24;;;;;;;0.40;0.37;;;;;;;6.86;93.06;99358.97;5074080;28;20464;-69
2021/03/12 02:31:53;;;;;;;0.60;0.50;;;;;;;6.78;92.91;99365.91;5073678;28;20534;-68
2021/03/12 02:34:22;;;;;;;0.40;0.30;;;;;;;6.73;93.35;99369.53;5073873;28;20455;-68
2021/03/12 02:36:50;;;;;;;0.40;0.30;;;;;;;6.69;93.96;99368.53;5073887;28;20514;-67
2021/03/12 02:39:19;;;;;;;0.40;0.30;;;;;;;6.65;94.29;99374.84;5073592;28;20437;-69
2021/03/12 02:41:46;;;;;;;0.40;0.30;;;;;;;6.63;93.88;99374.34;5073574;28;20428;-68
2021/03/12 02:44:13;;;;;;;0.40;0.30;;;;;;;6.54;94.24;99376.94;5073742;28;20449;-69
2021/03/12 02:46:40;;;;;;;2.93;0.50;;;;;;;6.49;94.23;99379.75;5073874;28;20441;-68
2021/03/12 02:49:07;;;;;;;0.40;0.30;;;;;;;6.51;94.34;99388.34;5072884;28;20782;-69
2021/03/12 02:51:34;;;;;;;0.40;0.30;;;;;;;6.48;94.76;99388.94;5073598;28;20485;-68
2021/03/12 02:54:01;;;;;;;0.40;0.30;;;;;;;6.51;94.53;99393.72;5073536;28;20441;-69
2021/03/12 02:56:27;;;;;;;0.40;0.40;;;;;;;6.53;94.32;99396.88;5073754;28;20452;-69
2021/03/12 02:58:55;;;;;;;2.00;0.57;;;;;;;6.49;94.74;99401.28;5074118;28;20950;-68
2021/03/12 03:01:23;;;;;;;0.40;0.30;;;;;;;6.44;94.72;99404.88;5076880;28;20806;-68
2021/03/12 03:03:50;;;;;;;0.40;0.30;;;;;;;6.42;94.85;99407.09;5073471;28;20437;-68
2021/03/12 03:06:16;;;;;;;0.50;0.40;;;;;;;6.42;94.77;99404.41;5073429;28;20441;-69
2021/03/12 03:08:45;;;;;;;0.40;0.40;;;;;;;6.32;94.91;99410.75;5073077;28;20953;-68
2021/03/12 03:11:13;;;;;;;0.63;0.30;;;;;;;6.31;94.56;99414.56;5073184;28;20496;-68
2021/03/12 03:13:41;;;;;;;1.37;1.27;;;;;;;6.25;94.79;99423.84;5073249;28;20495;-68
2021/03/12 03:16:12;;;;;;;0.60;0.57;;;;;;;6.24;94.51;99426.81;5073203;28;20855;-68
2021/03/12 03:18:39;;;;;;;0.70;0.43;;;;;;;6.25;94.38;99423.84;5073306;28;20430;-67
2021/03/12 03:21:07;;;;;;;0.40;0.30;;;;;;;6.29;94.02;99434.78;5073154;28;20453;-69
2021/03/12 03:23:34;;;;;;;0.40;0.30;;;;;;;6.17;93.17;99429.91;5074144;28;20449;-68
2021/03/12 03:26:00;;;;;;;0.50;0.30;;;;;;;6.22;92.92;99434.41;5072810;28;21022;-69
2021/03/12 03:28:26;;;;;;;0.40;0.30;;;;;;;6.25;92.37;99444.56;5073140;28;20441;-68
2021/03/12 03:30:52;;;;;;;0.57;0.40;;;;;;;6.21;93.05;99438.19;5072909;28;20518;-69
2021/03/12 03:33:18;;;;;;;0.50;0.40;;;;;;;6.22;92.39;99437.09;5073058;28;20825;-68
2021/03/12 03:35:44;;;;;;;0.40;0.30;;;;;;;6.24;91.89;99438.38;5073030;28;20465;-69
2021/03/12 03:38:10;;;;;;;0.40;0.20;;;;;;;6.18;92.32;99444.94;5072978;28;20437;-68
2021/03/12 03:40:37;;;;;;;0.50;0.50;;;;;;;6.17;91.71;99437.97;5072608;28;21074;-68
2021/03/12 03:43:05;;;;;;;0.40;0.30;;;;;;;6.16;91.91;99443.66;5072620;28;20433;-69
2021/03/12 03:45:33;;;;;;;0.40;0.30;;;;;;;6.21;91.75;99441.66;5072936;28;20468;-68
2021/03/12 03:48:00;;;;;;;0.40;0.30;;;;;;;6.24;91.20;99448.31;5072881;28;20459;-69
2021/03/12 03:50:28;;;;;;;0.47;0.37;;;;;;;6.26;91.07;99452.31;5072871;28;20469;-68
2021/03/12 03:52:56;;;;;;;0.40;0.30;;;;;;;6.28;91.30;99439.34;5072714;28;20484;-68
2021/03/12 03:55:25;;;;;;;4.40;1.07;;;;;;;6.23;91.47;99444.84;5072868;28;20453;-67
2021/03/12 03:57:51;;;;;;;0.40;0.30;;;;;;;6.25;91.33;99449.94;5072652;28;20430;-67
2021/03/12 04:00:19;;;;;;;0.40;0.30;;;;;;;6.21;91.65;99455.09;5074015;28;20453;-67
2021/03/12 04:02:47;;;;;;;0.40;0.30;;;;;;;6.21;91.50;99473.13;5076791;28;20464;-67
2021/03/12 04:05:14;;;;;;;0.40;0.30;;;;;;;6.25;91.06;99472.25;5076756;28;20442;-67
2021/03/12 04:07:41;;;;;;;0.40;0.30;;;;;;;6.21;91.30;99482.00;5076690;28;20475;-67
2021/03/12 04:10:10;;;;;;;0.40;0.27;;;;;;;6.20;91.50;99493.84;5076196;28;20449;-67
2021/03/12 04:12:37;;;;;;;0.40;0.20;;;;;;;6.17;91.53;99494.44;5076599;28;20484;-67
2021/03/12 04:15:06;;;;;;;0.40;0.30;;;;;;;6.20;91.44;99495.75;5076594;28;20437;-67
2021/03/12 04:17:33;;;;;;;0.40;0.30;;;;;;;6.20;91.56;99493.84;5076806;28;20848;-66
2021/03/12 04:20:00;;;;;;;0.40;0.20;;;;;;;6.16;92.47;99506.28;5076431;28;20454;-68
2021/03/12 04:22:26;;;;;;;0.40;0.30;;;;;;;6.15;92.48;99507.38;5076527;28;20447;-67
2021/03/12 04:24:52;;;;;;;0.87;0.70;;;;;;;6.17;92.75;99515.94;5076400;28;20433;-68
2021/03/12 04:27:20;;;;;;;0.70;0.57;;;;;;;6.13;92.22;99525.69;5076344;28;20475;-67
2021/03/12 04:29:46;;;;;;;0.50;0.40;;;;;;;6.19;92.09;99521.81;5076249;28;20472;-67
2021/03/12 04:32:13;;;;;;;0.47;0.40;;;;;;;6.18;92.36;99535.56;5075905;28;21028;-68
2021/03/12 04:34:39;;;;;;;0.70;0.57;;;;;;;6.16;92.20;99535.88;5077301;28;20973;-67
2021/03/12 04:37:05;;;;;;;0.40;0.30;;;;;;;6.20;92.58;99546.84;5076202;28;20445;-66
2021/03/12 04:39:32;;;;;;;0.60;0.47;;;;;;;6.19;92.49;99543.31;5075962;28;20481;-68
2021/03/12 04:41:59;;;;;;;0.60;0.50;;;;;;;6.17;92.83;99545.53;5075863;28;20421;-68
2021/03/12 04:44:26;;;;;;;0.50;0.40;;;;;;;6.18;92.64;99563.25;5075689;28;20508;-68
2021/03/12 04:46:53;;;;;;;0.40;0.40;;;;;;;6.16;93.23;99560.06;5076041;28;20440;-69
2021/03/12 04:49:20;;;;;;;0.40;0.30;;;;;;;6.14;93.01;99566.81;5075927;28;20437;-68
2021/03/12 04:51:46;;;;;;;0.40;0.30;;;;;;;6.17;93.14;99577.00;5075706;28;20531;-67
2021/03/12 04:54:15;;;;;;;0.40;0.30;;;;;;;6.15;93.20;99571.88;5075815;28;20858;-68
2021/03/12 04:56:41;;;;;;;0.60;0.30;;;;;;;6.20;92.74;99574.50;5075875;28;20445;-68
2021/03/12 04:59:07;;;;;;;0.70;0.30;;;;;;;6.13;93.10;99570.63;5075401;28;20851;-68
2021/03/12 05:01:35;;;;;;;0.40;0.30;;;;;;;6.16;93.70;99573.50;5075642;28;20449;-67
2021/03/12 05:04:04;;;;;;;0.40;0.30;;;;;;;6.16;93.70;99591.53;5075747;28;20438;-68
2021/03/12 05:06:31;;;;;;;0.40;0.20;;;;;;;6.16;93.08;99575.41;5075694;28;20430;-67
2021/03/12 05:08:57;;;;;;;0.40;0.30;;;;;;;6.17;93.39;99588.53;5075686;28;20445;-69
2021/03/12 05:11:23;;;;;;;0.40;0.30;;;;;;;6.21;93.46;99594.94;5075041;28;20489;-67
2021/03/12 05:13:50;;;;;;;8.13;1.20;;;;;;;6.19;94.60;99586.34;5075551;28;20442;-67
2021/03/12 05:16:17;;;;;;;0.73;0.50;;;;;;;6.09;96.50;99588.44;5075275;28;20457;-67
2021/03/12 05:18:44;;;;;;;0.40;0.33;;;;;;;6.03;96.89;99587.72;5075496;28;20433;-67
2021/03/12 05:21:10;;;;;;;0.40;0.30;;;;;;;5.95;98.39;99601.84;5074932;28;20874;-67
2021/03/12 05:23:36;;;;;;;0.40;0.30;;;;;;;5.79;99.61;99604.72;5075358;28;20441;-67
2021/03/12 05:26:02;;;;;;;2.00;0.70;;;;;;;5.73;100.00;99603.22;5075256;28;20498;-67
2021/03/12 05:28:28;;;;;;;0.40;0.30;;;;;;;5.69;100.00;99599.53;5077763;28;20437;-67
2021/03/12 05:30:54;;;;;;;0.60;0.47;;;;;;;5.66;100.00;99600.09;5075144;28;20481;-66
2021/03/12 05:33:20;;;;;;;2.70;0.50;;;;;;;5.56;100.00;99616.38;5075229;28;20445;-67
2021/03/12 05:35:47;;;;;;;0.40;0.30;;;;;;;5.51;100.00;99611.09;5074901;28;20485;-67
2021/03/12 05:38:13;;;;;;;0.40;0.40;;;;;;;5.49;100.00;99610.56;5075444;28;20437;-68
2021/03/12 05:40:40;;;;;;;0.40;0.30;;;;;;;5.47;100.00;99618.13;5074782;28;20501;-67
2021/03/12 05:43:08;;;;;;;0.40;0.30;;;;;;;5.48;100.00;99630.44;5074969;28;20437;-67
2021/03/12 05:45:35;;;;;;;0.40;0.30;;;;;;;5.50;100.00;99623.72;5074904;28;20518;-68
2021/03/12 05:48:01;;;;;;;0.47;0.40;;;;;;;5.47;100.00;99623.50;5074867;28;20441;-67
2021/03/12 05:50:27;;;;;;;1.93;1.33;;;;;;;5.46;100.00;99625.38;5074782;28;20507;-67
2021/03/12 05:52:54;;;;;;;0.40;0.30;;;;;;;5.48;100.00;99631.25;5074735;28;20507;-68
2021/03/12 05:55:21;;;;;;;0.40;0.30;;;;;;;5.44;100.00;99632.13;5074350;28;20449;-68
2021/03/12 05:57:47;;;;;;;0.40;0.30;;;;;;;5.44;100.00;99645.56;5074751;28;20488;-67
2021/03/12 06:00:15;;;;;;;0.77;0.47;;;;;;;5.44;100.00;99656.28;5074622;28;20457;-67
2021/03/12 06:02:41;;;;;;;0.40;0.30;;;;;;;5.46;100.00;99656.81;5074586;28;20441;-68
2021/03/12 06:05:09;;;;;;;0.40;0.30;;;;;;;5.40;100.00;99656.09;5074470;28;20441;-68
2021/03/12 06:07:35;;;;;;;0.40;0.30;;;;;;;5.40;100.00;99671.38;5074508;28;20442;-67
2021/03/12 06:10:04;;;;;;;1.90;0.80;;;;;;;5.46;100.00;99670.25;5074354;28;20487;-68
2021/03/12 06:12:31;;;;;;;0.40;0.30;;;;;;;5.48;100.00;99694.91;5074044;28;21010;-67
2021/03/12 06:14:58;;;;;;;0.40;0.30;;;;;;;5.51;100.00;99678.22;5074110;28;21042;-68
2021/03/12 06:17:35;;;;;;;0.50;0.30;;;;;;;5.49;100.00;99685.75;5074231;28;20472;-67
2021/03/12 06:20:03;;;;;;;1.40;0.70;;;;;;;5.45;100.00;99696.31;5074187;28;20465;-68
2021/03/12 06:22:29;;;;;;;0.40;0.30;;;;;;;5.41;100.00;99700.66;5073652;28;20441;-69
2021/03/12 06:25:11;;;;;;;0.40;0.30;;;;;;;5.40;100.00;99709.81;5074096;28;20858;-68
2021/03/12 06:27:38;;;;;;;0.40;0.37;;;;;;;5.36;100.00;99716.84;5074143;28;20783;-66
2021/03/12 06:30:05;;;;;;;0.40;0.30;;;;;;;5.32;100.00;99724.66;5074043;28;20457;-66
2021/03/12 06:32:39;;;;;;;1.17;0.40;;;;;;;5.20;100.00;99729.63;5074048;28;20499;-67
2021/03/12 06:35:06;;;;;;;0.83;0.83;;;;;;;5.15;100.00;99727.00;5074098;28;20491;-67
2021/03/12 06:37:32;;;;;;;0.40;0.30;;;;;;;5.18;100.00;99734.50;5074077;28;20456;-66
2021/03/12 06:39:59;;;;;;;0.80;0.80;;;;;;;5.15;100.00;99731.56;5073678;28;20481;-67
2021/03/12 06:42:26;;;;;;;3.90;0.80;;;;;;;5.16;100.00;99735.84;5073949;28;20524;-66
2021/03/12 06:44:52;;;;;;;0.40;0.30;;;;;;;5.15;100.00;99737.75;5073565;28;20858;-67
2021/03/12 06:47:22;;;;;;;0.60;0.40;;;;;;;5.16;100.00;99735.84;5073786;28;20448;-66
2021/03/12 06:49:53;;;;;;;0.40;0.30;;;;;;;5.17;100.00;99754.34;5073752;28;20469;-67
2021/03/12 06:52:19;;;;;;;0.40;0.30;;;;;;;5.17;100.00;99748.97;5073734;28;20526;-66
2021/03/12 06:54:52;;;;;;;0.90;0.90;;;;;;;5.18;100.00;99755.97;5073673;28;20438;-67
2021/03/12 06:57:19;;;;;;;0.50;0.40;;;;;;;5.21;100.00;99758.06;5073648;28;20429;-69
2021/03/12 06:59:46;;;;;;;0.40;0.30;;;;;;;5.26;100.00;99762.56;5073262;28;20997;-69
2021/03/12 07:02:12;;;;;;;0.40;0.40;;;;;;;5.26;100.00;99763.38;5073271;28;20812;-67
2021/03/12 07:04:38;;;;;;;0.50;0.40;;;;;;;5.36;100.00;99765.16;5073602;28;20446;-66
2021/03/12 07:07:04;;;;;;;0.67;0.67;;;;;;;5.45;100.00;99765.34;5073721;28;20543;-66
2021/03/12 07:09:30;;;;;;;0.50;0.50;;;;;;;5.57;100.00;99773.75;5073466;28;20461;-67
2021/03/12 07:11:58;;;;;;;0.50;0.47;;;;;;;5.65;100.00;99775.81;5073357;28;20492;-67
2021/03/12 07:14:24;;;;;;;1.10;0.93;;;;;;;5.64;100.00;99782.28;5073325;28;20448;-67
2021/03/12 07:16:52;;;;;;;0.50;0.50;;;;;;;5.66;100.00;99782.78;5073380;28;20442;-68
2021/03/12 07:19:19;;;;;;;0.83;0.60;;;;;;;5.73;100.00;99790.50;5073035;28;20479;-67
2021/03/12 07:21:47;;;;;;;0.60;0.50;;;;;;;5.70;100.00;99799.91;5073093;28;21069;-67
2021/03/12 07:24:16;;;;;;;4.33;0.80;;;;;;;5.77;100.00;99800.38;5073267;28;20501;-67
2021/03/12 07:26:46;;;;;;;0.40;0.40;;;;;;;5.87;100.00;99809.41;5073366;28;20481;-66
2021/03/12 07:29:13;;;;;;;0.70;0.60;;;;;;;6.00;100.00;99811.41;5073295;28;20873;-67
2021/03/12 07:31:41;;;;;;;0.40;0.30;;;;;;;6.05;100.00;99820.19;5073207;28;20485;-66
2021/03/12 07:34:13;;;;;;;0.40;0.30;;;;;;;6.16;100.00;99814.69;5072395;28;20954;-67
2021/03/12 07:36:45;;;;;;;0.87;0.87;;;;;;;6.31;100.00;99819.84;5073268;28;20802;-67
2021/03/12 07:39:17;;;;;;;0.40;0.30;;;;;;;6.35;100.00;99820.06;5072997;28;20422;-68
2021/03/12 07:41:44;;;;;;;0.60;0.50;;;;;;;6.36;100.00;99822.44;5073288;28;20430;-68
2021/03/12 07:44:13;;;;;;;0.40;0.40;;;;;;;6.29;100.00;99838.97;5072983;28;21013;-67
2021/03/12 07:46:40;;;;;;;0.40;0.30;;;;;;;6.29;100.00;99828.22;5073193;28;20476;-66
2021/03/12 07:49:37;;;;;;;0.40;0.30;;;;;;;6.33;100.00;99836.50;5072697;28;20946;-67
2021/03/12 07:52:04;;;;;;;0.40;0.27;;;;;;;6.36;100.00;99843.16;5073162;28;20466;-67
2021/03/12 07:54:49;;;;;;;3.23;1.60;;;;;;;6.36;100.00;99843.16;5074106;28;20441;-68
2021/03/12 07:57:37;;;;;;;0.50;0.40;;;;;;;6.37;100.00;99858.22;5073141;28;20951;-67
2021/03/12 08:00:05;;;;;;;0.40;0.30;;;;;;;6.41;100.00;99865.41;5072967;28;20499;-68
2021/03/12 08:02:57;;;;;;;0.80;0.80;;;;;;;6.48;100.00;99849.72;5072949;28;20464;-66
2021/03/12 08:05:33;;;;;;;1.10;0.77;;;;;;;6.57;100.00;99863.31;5072718;28;20438;-66
2021/03/12 08:07:59;;;;;;;0.40;0.30;;;;;;;6.66;99.63;99858.84;5072976;28;20473;-67
2021/03/12 08:10:26;;;;;;;0.40;0.20;;;;;;;6.66;96.97;99858.84;5072855;28;20461;-66
2021/03/12 08:12:52;;;;;;;1.03;1.03;;;;;;;6.69;96.83;99863.66;5072807;28;20538;-66
2021/03/12 08:15:20;;;;;;;0.40;0.30;;;;;;;6.68;95.89;99875.50;5071686;28;20946;-66
2021/03/12 08:17:46;;;;;;;1.60;0.93;;;;;;;6.69;96.23;99879.00;5072822;28;20441;-66
2021/03/12 08:20:32;;;;;;;0.40;0.30;;;;;;;6.68;94.77;99883.56;5072713;28;20487;-66
2021/03/12 08:22:59;;;;;;;0.70;0.50;;;;;;;6.74;94.76;99884.31;5072854;28;20499;-67
2021/03/12 08:25:50;;;;;;;0.50;0.40;;;;;;;6.71;94.33;99890.28;5072724;28;20467;-67
2021/03/12 08:28:30;;;;;;;0.50;0.40;;;;;;;6.69;93.88;99887.88;5072948;28;20799;-67
2021/03/12 08:30:58;;;;;;;1.37;1.27;;;;;;;6.78;94.51;99888.03;5072617;28;20504;-67
2021/03/12 08:33:38;;;;;;;0.80;0.60;;;;;;;6.82;94.55;99883.66;5072479;28;20558;-67
2021/03/12 08:36:07;;;;;;;0.40;0.30;;;;;;;6.86;93.81;99897.31;5072615;28;20480;-67
2021/03/12 08:38:40;;;;;;;0.60;0.50;;;;;;;6.92;94.48;99893.47;5072670;28;20907;-67
2021/03/12 08:41:12;;;;;;;3.03;0.40;;;;;;;6.90;94.89;99907.19;5072198;28;20862;-67
2021/03/12 08:43:43;;;;;;;0.40;0.30;;;;;;;6.85;93.53;99903.78;5072295;28;20930;-67
2021/03/12 08:46:16;;;;;;;1.80;0.70;;;;;;;6.87;93.25;99905.09;5073713;28;20520;-67
2021/03/12 08:48:44;;;;;;;2.10;1.03;;;;;;;6.87;93.15;99912.38;5076194;28;20433;-67
2021/03/12 08:51:15;;;;;;;1.43;1.33;;;;;;;6.95;92.58;99906.31;5075728;28;20484;-66
2021/03/12 08:53:46;;;;;;;0.80;0.67;;;;;;;7.00;93.31;99907.06;5076079;28;20437;-67
2021/03/12 08:56:12;;;;;;;0.73;0.73;;;;;;;6.92;92.86;99905.03;5076099;28;20437;-67
2021/03/12 08:58:39;;;;;;;0.40;0.30;;;;;;;6.88;92.67;99905.91;5076027;28;20449;-66
2021/03/12 09:01:10;;;;;;;0.40;0.33;;;;;;;6.88;93.59;99914.78;5076136;28;20457;-67
2021/03/12 09:03:36;;;;;;;0.40;0.20;;;;;;;6.87;93.23;99917.78;5075938;28;20437;-68
2021/03/12 09:06:04;;;;;;;0.40;0.30;;;;;;;6.86;94.63;99910.75;5075549;28;20890;-67
2021/03/12 09:08:32;;;;;;;0.63;0.63;;;;;;;6.89;94.81;99910.97;5075838;28;20499;-65
2021/03/12 09:10:59;;;;;;;0.40;0.30;;;;;;;6.85;94.79;99909.97;5075718;28;20465;-67
2021/03/12 09:13:28;;;;;;;0.83;0.67;;;;;;;6.98;92.90;99921.88;5075660;28;20530;-68
2021/03/12 09:15:55;;;;;;;2.10;1.03;;;;;;;7.21;94.71;99917.47;5075722;28;20471;-68
2021/03/12 09:18:23;;;;;;;0.40;0.30;;;;;;;7.36;93.98;99925.31;5075685;28;20441;-67
2021/03/12 09:20:51;;;;;;;1.47;0.70;;;;;;;7.36;90.06;99919.13;5075512;28;20502;-70
2021/03/12 09:23:17;;;;;;;0.57;0.50;;;;;;;7.49;89.56;99932.63;5075615;28;20487;-67
2021/03/12 09:25:44;;;;;;;0.40;0.30;;;;;;;7.62;87.81;99928.38;5075532;28;20445;-68
2021/03/12 09:28:11;;;;;;;0.40;0.30;;;;;;;7.67;84.76;99943.63;5075437;28;20818;-67
2021/03/12 09:30:40;;;;;;;0.60;0.60;;;;;;;7.80;86.08;99935.56;5075020;28;20453;-68
2021/03/12 09:33:07;;;;;;;1.27;0.60;;;;;;;8.04;85.44;99945.34;5075215;28;20481;-67
2021/03/12 09:35:39;;;;;;;0.60;0.53;;;;;;;8.19;83.48;99946.94;5074967;28;20954;-68
2021/03/12 09:38:05;;;;;;;0.50;0.40;;;;;;;8.30;82.46;99932.94;5075165;28;20803;-67
2021/03/12 09:40:39;;;;;;;0.40;0.30;;;;;;;8.46;82.05;99929.97;5074682;28;20535;-68
2021/03/12 09:43:08;;;;;;;0.40;0.30;;;;;;;8.70;80.90;99938.59;5075006;28;20432;-67
2021/03/12 09:45:36;;;;;;;0.60;0.60;;;;;;;8.79;78.96;99942.19;5074777;28;20425;-68
2021/03/12 09:48:04;;;;;;;0.40;0.30;;;;;;;8.88;77.80;99941.47;5074990;28;20445;-68
2021/03/12 09:50:34;;;;;;;1.43;1.33;;;;;;;8.92;77.79;99947.84;5074877;28;20465;-68
2021/03/12 09:53:04;;;;;;;0.70;0.63;;;;;;;8.96;76.51;99944.22;5074621;28;20476;-67
2021/03/12 09:55:33;;;;;;;0.90;0.40;;;;;;;8.82;74.47;99944.28;5074913;28;20464;-68
2021/03/12 09:57:59;;;;;;;0.40;0.30;;;;;;;8.86;73.58;99949.88;5073270;28;20794;-66
2021/03/12 10:00:26;;;;;;;0.77;0.70;;;;;;;8.70;72.31;99960.19;5074654;28;20879;-67
2021/03/12 10:02:55;;;;;;;3.83;0.40;;;;;;;8.65;73.56;99952.22;5074787;28;20495;-68
2021/03/12 10:05:23;;;;;;;1.70;0.40;;;;;;;8.59;75.96;99965.03;5074393;28;20445;-68
2021/03/12 10:07:49;;;;;;;0.80;0.80;;;;;;;8.59;75.71;99959.63;5074815;28;20444;-67
2021/03/12 10:10:18;;;;;;;0.40;0.23;;;;;;;8.70;74.39;99964.81;5074462;28;20476;-68
2021/03/12 10:12:45;;;;;;;0.40;0.30;;;;;;;8.78;70.30;99969.50;5074514;28;20485;-67
2021/03/12 10:15:13;;;;;;;0.40;0.40;;;;;;;8.90;72.83;99987.84;5074530;28;20445;-68
2021/03/12 10:17:41;;;;;;;0.40;0.30;;;;;;;8.87;69.16;99972.28;5074566;28;20498;-67
2021/03/12 10:20:08;;;;;;;0.70;0.70;;;;;;;8.96;69.04;99959.63;5074403;28;20511;-68
2021/03/12 10:22:37;;;;;;;0.60;0.50;;;;;;;9.07;68.65;99972.63;5074500;28;20433;-67
2021/03/12 10:25:09;;;;;;;0.50;0.30;;;;;;;8.92;67.11;99970.25;5074097;28;20969;-67
2021/03/12 10:27:38;;;;;;;0.40;0.30;;;;;;;9.03;67.74;99966.22;5074258;28;20446;-68
2021/03/12 10:30:10;;;;;;;1.03;0.40;;;;;;;9.01;67.79;99975.72;5074196;28;20466;-67
2021/03/12 10:32:38;;;;;;;0.40;0.37;;;;;;;9.03;66.58;99962.69;5074114;28;20485;-67
2021/03/12 10:35:15;;;;;;;0.40;0.30;;;;;;;9.15;67.48;99981.06;5074209;28;20448;-67
2021/03/12 10:37:41;;;;;;;0.60;0.57;;;;;;;9.32;65.00;99986.59;5073866;28;20796;-65
2021/03/12 10:40:08;;;;;;;0.50;0.30;;;;;;;9.41;65.01;99992.88;5073757;28;20523;-68
2021/03/12 10:42:34;;;;;;;0.50;0.30;;;;;;;9.28;63.24;99994.53;5074036;28;20442;-68
2021/03/12 10:45:06;;;;;;;3.03;0.97;;;;;;;9.29;64.19;99981.81;5073891;28;20433;-68
2021/03/12 10:47:32;;;;;;;4.17;1.13;;;;;;;9.37;65.16;99974.88;5073604;28;20915;-68
2021/03/12 10:49:58;;;;;;;1.33;0.93;;;;;;;9.45;67.83;100003.88;5073479;28;21035;-68
2021/03/12 10:52:30;;;;;;;0.60;0.60;;;;;;;9.52;65.58;99993.44;5073776;28;20485;-68
2021/03/12 10:54:57;;;;;;;0.50;0.40;;;;;;;9.50;63.37;99995.63;5073814;28;20490;-69
2021/03/12 10:57:37;;;;;;;0.40;0.30;;;;;;;9.64;63.12;99996.34;5073714;28;20437;-67
2021/03/12 11:00:08;;;;;;;0.50;0.40;;;;;;;9.73;61.83;99999.13;5073307;28;20833;-68
2021/03/12 11:02:35;;;;;;;0.40;0.30;;;;;;;9.75;63.21;99995.00;5073753;28;20426;-68
2021/03/12 11:05:01;;;;;;;0.70;0.60;;;;;;;9.66;62.52;100001.47;5073427;28;20446;-68
2021/03/12 11:07:27;;;;;;;1.33;1.07;;;;;;;9.57;63.30;99996.00;5073615;28;20445;-68
2021/03/12 11:09:53;;;;;;;0.73;0.60;;;;;;;9.72;60.41;100000.22;5072906;28;20457;-69
2021/03/12 11:12:19;;;;;;;0.70;0.70;;;;;;;9.75;60.66;100008.53;5073466;28;20481;-67
2021/03/12 11:14:47;;;;;;;0.50;0.30;;;;;;;9.73;60.98;100008.03;5073146;28;20537;-67
2021/03/12 11:17:13;;;;;;;0.57;0.40;;;;;;;9.93;61.96;100000.50;5073524;28;20449;-67
2021/03/12 11:19:39;;;;;;;0.40;0.30;;;;;;;10.08;61.36;100002.78;5072999;28;20825;-69
2021/03/12 11:22:05;;;;;;;0.60;0.50;;;;;;;10.13;59.28;100002.66;5073336;28;20488;-68
2021/03/12 11:24:31;;;;;;;0.60;0.60;;;;;;;10.12;59.34;100001.06;5073294;28;20487;-68
2021/03/12 11:26:58;;;;;;;0.97;0.40;;;;;;;10.20;58.06;100008.41;5073052;28;20520;-67
2021/03/12 11:29:26;;;;;;;0.40;0.30;;;;;;;10.24;57.67;100001.31;5073226;28;20463;-68
2021/03/12 11:31:52;;;;;;;1.10;1.00;;;;;;;10.17;58.14;100003.63;5073089;28;20483;-68
2021/03/12 11:34:18;;;;;;;0.40;0.30;;;;;;;9.98;56.63;100003.06;5073147;28;20453;-67
2021/03/12 11:36:44;;;;;;;0.40;0.30;;;;;;;9.81;56.17;100004.56;5073033;28;20437;-68
2021/03/12 11:39:11;;;;;;;0.40;0.30;;;;;;;9.86;56.08;100009.84;5072605;28;20865;-67
2021/03/12 11:41:38;;;;;;;0.40;0.30;;;;;;;9.70;56.20;100005.94;5073140;28;20461;-68
2021/03/12 11:44:05;;;;;;;0.60;0.40;;;;;;;9.59;58.14;100010.81;5073082;28;20456;-66